Hansa Australia — CQCG — position and weather

sailwx.info

Track history (hours):
 
Tides and Currents Weather Stations Pressure Air Temp Water Temp Dewpoint Dewpoint Depression Visibility Wind Speed Wind Dir Waves Ship Positions

Hansa Australia

Last reported at 2018-Apr-21 16:23 UTC. Time now 2018-Apr-22 08:10 UTC.
Position N 06°55' W 013°28'.

Length 240 m; draft 11.3 m.

Type: Ship (hazmat cat A). MMSI: 255805757.

Date/timePositionNaut miles runAvg speedWind from/ knotsBaromVisibWave heightAir tempDewpointWater temp
2018-Apr-21 16:23N 06°55' W 013°28'6314.4
2018-Apr-21 11:59N 07°31' W 014°21'714.3
2018-Apr-21 11:30N 07°35' W 014°26'714.2
2018-Apr-21 11:01N 07°39' W 014°32'914.1
2018-Apr-21 10:21N 07°45' W 014°40'1014.4
2018-Apr-21 09:40N 07°50' W 014°48'214.2
2018-Apr-21 09:31N 07°52' W 014°50'814.5
2018-Apr-21 08:58N 07°56' W 014°56'714.2
2018-Apr-21 08:30N 08°00' W 015°02'713.6
2018-Apr-21 08:01N 08°05' W 015°07'714.2
2018-Apr-21 07:30N 08°10' W 015°11'714.7
2018-Apr-21 07:00N 08°16' W 015°16'1116.2
2018-Apr-21 06:20N 08°24' W 015°22'716.4
2018-Apr-21 05:54N 08°30' W 015°27'616.1
2018-Apr-21 05:30N 08°35' W 015°31'816.2
2018-Apr-21 05:01N 08°41' W 015°36'816.2
2018-Apr-21 04:30N 08°48' W 015°41'816.2
2018-Apr-21 04:00N 08°54' W 015°46'816.4
2018-Apr-21 03:30N 09°00' W 015°52'916.5
2018-Apr-21 02:59N 09°07' W 015°57'816.3
2018-Apr-21 02:31N 09°13' W 016°02'816.4
2018-Apr-21 02:00N 09°19' W 016°07'816.7
2018-Apr-21 01:30N 09°26' W 016°12'816.8
2018-Apr-21 01:00N 09°32' W 016°18'816.4
2018-Apr-21 00:30N 09°39' W 016°23'816.5
2018-Apr-21 00:00N 09°45' W 016°28'816.4
2018-Apr-20 23:30N 09°52' W 016°33'816.7
2018-Apr-20 23:00N 09°59' W 016°38'  
2018-Apr-18 03:17N 26°03' W 015°04'516.2
2018-Apr-18 02:59N 26°08' W 015°01'816.4
2018-Apr-18 02:30N 26°14' W 014°57'1016.6
2018-Apr-18 01:55N 26°23' W 014°51'1716.7
2018-Apr-18 00:54N 26°37' W 014°41'716.8
2018-Apr-18 00:29N 26°43' W 014°37'2216.9
2018-Apr-17 23:11N 27°02' W 014°25'716.6
2018-Apr-17 22:46N 27°08' W 014°21'416.7
2018-Apr-17 22:30N 27°12' W 014°18'816.8
2018-Apr-17 22:00N 27°19' W 014°13'916.8
2018-Apr-17 21:30N 27°26' W 014°08'917.1
2018-Apr-17 21:00N 27°33' W 014°03'917.2
2018-Apr-17 20:28N 27°41' W 013°58'817.3
2018-Apr-17 20:00N 27°48' W 013°53'917.3
2018-Apr-17 19:30N 27°55' W 013°48'917.5
2018-Apr-17 19:00N 28°03' W 013°43'817.5
2018-Apr-17 18:30N 28°10' W 013°38'917.3
2018-Apr-17 18:00N 28°18' W 013°33'817.2
2018-Apr-17 17:30N 28°25' W 013°27'917.1
2018-Apr-17 17:00N 28°32' W 013°21'817.0
2018-Apr-17 16:30N 28°39' W 013°16'917.0
2018-Apr-17 16:00N 28°46' W 013°10'816.8
2018-Apr-17 15:30N 28°52' W 013°05'816.6
2018-Apr-17 15:00N 28°59' W 012°59'816.3
2018-Apr-17 14:30N 29°06' W 012°54'816.3
2018-Apr-17 14:00N 29°12' W 012°48'816.4
2018-Apr-17 13:30N 29°19' W 012°43'816.5
2018-Apr-17 13:00N 29°26' W 012°37'816.4
2018-Apr-17 12:30N 29°33' W 012°32'816.3
2018-Apr-17 12:00N 29°39' W 012°27'51216.3
2018-Apr-16 04:39N 35°58' W 005°37'213.0
2018-Apr-16 04:30N 35°58' W 005°35'612.8
2018-Apr-16 04:00N 36°00' W 005°27'612.0
2018-Apr-16 03:31N 36°05' W 005°23'3 5.2
2018-Apr-16 03:00N 36°08' W 005°25'0 0.1
2018-Apr-16 02:28N 36°08' W 005°25'0 0.0
2018-Apr-16 01:58N 36°08' W 005°25'0 0.0
2018-Apr-16 01:29N 36°08' W 005°25'0 0.0
2018-Apr-16 00:58N 36°08' W 005°25'0 0.0
2018-Apr-16 00:28N 36°08' W 005°25'0 0.0
2018-Apr-15 23:59N 36°08' W 005°25'0 0.0
2018-Apr-15 23:29N 36°08' W 005°25'0 0.0
2018-Apr-15 22:58N 36°08' W 005°25'0 0.0
2018-Apr-15 22:28N 36°08' W 005°25'0 0.0
2018-Apr-15 21:59N 36°08' W 005°25'0 0.0
2018-Apr-15 21:29N 36°08' W 005°25'0 0.0
2018-Apr-15 20:58N 36°08' W 005°25'0 0.0
2018-Apr-15 20:29N 36°08' W 005°25'0 0.0
2018-Apr-15 19:58N 36°08' W 005°25'0 0.0
2018-Apr-15 19:29N 36°08' W 005°25'0 0.0
2018-Apr-15 18:59N 36°08' W 005°25'0 0.0
2018-Apr-15 18:28N 36°08' W 005°25'0 0.0
2018-Apr-15 17:52N 36°08' W 005°25'0 0.0
2018-Apr-15 17:29N 36°08' W 005°25'0 0.0
2018-Apr-15 16:59N 36°08' W 005°25'0 0.0
2018-Apr-15 16:29N 36°08' W 005°25'0 0.0
2018-Apr-15 15:52N 36°08' W 005°25'0 0.0
2018-Apr-15 15:26N 36°08' W 005°25'0 0.0
2018-Apr-15 14:59N 36°08' W 005°25'0 0.4
2018-Apr-15 14:30N 36°08' W 005°25'2 4.2
2018-Apr-15 14:00N 36°06' W 005°23'4 7.2
2018-Apr-15 13:30N 36°03' W 005°21'0 0.7
2018-Apr-15 13:00N 36°03' W 005°21'0 0.4
2018-Apr-15 12:30N 36°03' W 005°21'1 1.2
2018-Apr-15 12:00N 36°03' W 005°22'0 0.8
2018-Apr-15 11:30N 36°03' W 005°22'1 2.4
2018-Apr-15 11:00N 36°04' W 005°21'0 0.3
2018-Apr-15 10:30N 36°04' W 005°21'0 0.2
2018-Apr-15 10:00N 36°04' W 005°21'2 3.4
2018-Apr-15 09:30N 36°02' W 005°20'510.9
2018-Apr-15 09:00N 35°58' W 005°24'221 6.7
2018-Apr-13 23:58N 37°34' W 009°33'511.1
2018-Apr-13 23:30N 37°39' W 009°32'611.1
2018-Apr-13 23:00N 37°44' W 009°31'511.1
2018-Apr-13 22:30N 37°50' W 009°30'611.2
2018-Apr-13 22:00N 37°55' W 009°29'611.3
2018-Apr-13 21:30N 38°01' W 009°29'611.2
2018-Apr-13 21:00N 38°07' W 009°28'611.2
2018-Apr-13 20:30N 38°12' W 009°27'611.3
2018-Apr-13 20:00N 38°18' W 009°27'611.2
2018-Apr-13 19:30N 38°24' W 009°26'611.2
2018-Apr-13 19:00N 38°29' W 009°26'611.3
2018-Apr-13 18:30N 38°35' W 009°25'510.5
2018-Apr-13 18:00N 38°40' W 009°24'3 6.2
2018-Apr-13 17:30N 38°37' W 009°23'612.4
2018-Apr-13 17:00N 38°41' W 009°17'5 7.1
2018-Apr-13 16:14N 38°42' W 009°10'0 0.0
2018-Apr-13 09:48N 38°42' W 009°10'0 0.0
2018-Apr-13 06:30N 38°42' W 009°10'0 0.0
2018-Apr-13 05:48N 38°42' W 009°10'0 0.0
2018-Apr-13 04:48N 38°42' W 009°10'0 0.0
2018-Apr-13 03:12N 38°42' W 009°10'0 0.0
2018-Apr-13 03:00N 38°42' W 009°10'0 0.0
2018-Apr-13 02:18N 38°42' W 009°10'0 0.0
2018-Apr-13 00:48N 38°42' W 009°10'0 0.0
2018-Apr-13 00:18N 38°42' W 009°10'0 0.0
2018-Apr-13 00:00N 38°42' W 009°10'0 0.0
2018-Apr-12 19:54N 38°42' W 009°10'0 0.0
2018-Apr-12 19:00N 38°42' W 009°10'0 0.0
2018-Apr-12 18:18N 38°42' W 009°10'0 0.0
2018-Apr-12 17:48N 38°42' W 009°10'0 0.0
2018-Apr-12 14:24N 38°42' W 009°10'0 0.0
2018-Apr-12 13:48N 38°42' W 009°10'0 0.0
2018-Apr-12 13:24N 38°42' W 009°10'0 0.0
2018-Apr-12 13:00N 38°42' W 009°10'0 0.0
2018-Apr-12 12:24N 38°42' W 009°10'0 0.0
2018-Apr-12 12:00N 38°42' W 009°10'0 0.0
2018-Apr-12 09:42N 38°42' W 009°10'0 0.0
2018-Apr-12 09:30N 38°42' W 009°10'0 0.0
2018-Apr-12 08:48N 38°42' W 009°10'0 0.0
2018-Apr-12 08:24N 38°42' W 009°10'0 0.0
2018-Apr-12 08:00N 38°42' W 009°10'0 0.0
2018-Apr-12 07:16N 38°42' W 009°10'0 0.0
2018-Apr-12 06:58N 38°42' W 009°10'0 0.0
2018-Apr-12 06:31N 38°42' W 009°10'0 0.0
2018-Apr-12 05:55N 38°42' W 009°10'0 0.0
2018-Apr-12 05:22N 38°42' W 009°10'0 0.0
2018-Apr-12 04:49N 38°42' W 009°10'0 0.0
2018-Apr-12 04:28N 38°42' W 009°10'0 0.0
2018-Apr-11 20:43N 38°42' W 009°10'0 0.0
2018-Apr-11 20:22N 38°42' W 009°10'0 0.0
2018-Apr-11 19:55N 38°42' W 009°10'  
Track history (hours):
 
Tides and Currents Weather Stations Pressure Air Temp Water Temp Dewpoint Dewpoint Depression Visibility Wind Speed Wind Dir Waves Ship Positions

Hansa Australia

Last reported at 2018-Apr-21 16:23 UTC. Time now 2018-Apr-22 08:10 UTC.
Position N 06°55' W 013°28'.

Length 240 m; draft 11.3 m.

Type: Ship (hazmat cat A). MMSI: 255805757.

Date/timePositionNaut miles runAvg speedWind from/ knotsBaromVisibWave heightAir tempDewpointWater temp
2018-Apr-21 16:23N 06°55' W 013°28'6314.4
2018-Apr-21 11:59N 07°31' W 014°21'714.3
2018-Apr-21 11:30N 07°35' W 014°26'714.2
2018-Apr-21 11:01N 07°39' W 014°32'914.1
2018-Apr-21 10:21N 07°45' W 014°40'1014.4
2018-Apr-21 09:40N 07°50' W 014°48'214.2
2018-Apr-21 09:31N 07°52' W 014°50'814.5
2018-Apr-21 08:58N 07°56' W 014°56'714.2
2018-Apr-21 08:30N 08°00' W 015°02'713.6
2018-Apr-21 08:01N 08°05' W 015°07'714.2
2018-Apr-21 07:30N 08°10' W 015°11'714.7
2018-Apr-21 07:00N 08°16' W 015°16'1116.2
2018-Apr-21 06:20N 08°24' W 015°22'716.4
2018-Apr-21 05:54N 08°30' W 015°27'616.1
2018-Apr-21 05:30N 08°35' W 015°31'816.2
2018-Apr-21 05:01N 08°41' W 015°36'816.2
2018-Apr-21 04:30N 08°48' W 015°41'816.2
2018-Apr-21 04:00N 08°54' W 015°46'816.4
2018-Apr-21 03:30N 09°00' W 015°52'916.5
2018-Apr-21 02:59N 09°07' W 015°57'816.3
2018-Apr-21 02:31N 09°13' W 016°02'816.4
2018-Apr-21 02:00N 09°19' W 016°07'816.7
2018-Apr-21 01:30N 09°26' W 016°12'816.8
2018-Apr-21 01:00N 09°32' W 016°18'816.4
2018-Apr-21 00:30N 09°39' W 016°23'816.5
2018-Apr-21 00:00N 09°45' W 016°28'816.4
2018-Apr-20 23:30N 09°52' W 016°33'816.7
2018-Apr-20 23:00N 09°59' W 016°38'  
2018-Apr-18 03:17N 26°03' W 015°04'516.2
2018-Apr-18 02:59N 26°08' W 015°01'816.4
2018-Apr-18 02:30N 26°14' W 014°57'1016.6
2018-Apr-18 01:55N 26°23' W 014°51'1716.7
2018-Apr-18 00:54N 26°37' W 014°41'716.8
2018-Apr-18 00:29N 26°43' W 014°37'2216.9
2018-Apr-17 23:11N 27°02' W 014°25'716.6
2018-Apr-17 22:46N 27°08' W 014°21'416.7
2018-Apr-17 22:30N 27°12' W 014°18'816.8
2018-Apr-17 22:00N 27°19' W 014°13'916.8
2018-Apr-17 21:30N 27°26' W 014°08'917.1
2018-Apr-17 21:00N 27°33' W 014°03'917.2
2018-Apr-17 20:28N 27°41' W 013°58'817.3
2018-Apr-17 20:00N 27°48' W 013°53'917.3
2018-Apr-17 19:30N 27°55' W 013°48'917.5
2018-Apr-17 19:00N 28°03' W 013°43'817.5
2018-Apr-17 18:30N 28°10' W 013°38'917.3
2018-Apr-17 18:00N 28°18' W 013°33'817.2
2018-Apr-17 17:30N 28°25' W 013°27'917.1
2018-Apr-17 17:00N 28°32' W 013°21'817.0
2018-Apr-17 16:30N 28°39' W 013°16'917.0
2018-Apr-17 16:00N 28°46' W 013°10'816.8
2018-Apr-17 15:30N 28°52' W 013°05'816.6
2018-Apr-17 15:00N 28°59' W 012°59'816.3
2018-Apr-17 14:30N 29°06' W 012°54'816.3
2018-Apr-17 14:00N 29°12' W 012°48'816.4
2018-Apr-17 13:30N 29°19' W 012°43'816.5
2018-Apr-17 13:00N 29°26' W 012°37'816.4
2018-Apr-17 12:30N 29°33' W 012°32'816.3
2018-Apr-17 12:00N 29°39' W 012°27'51216.3
2018-Apr-16 04:39N 35°58' W 005°37'213.0
2018-Apr-16 04:30N 35°58' W 005°35'612.8
2018-Apr-16 04:00N 36°00' W 005°27'612.0
2018-Apr-16 03:31N 36°05' W 005°23'3 5.2
2018-Apr-16 03:00N 36°08' W 005°25'0 0.1
2018-Apr-16 02:28N 36°08' W 005°25'0 0.0
2018-Apr-16 01:58N 36°08' W 005°25'0 0.0
2018-Apr-16 01:29N 36°08' W 005°25'0 0.0
2018-Apr-16 00:58N 36°08' W 005°25'0 0.0
2018-Apr-16 00:28N 36°08' W 005°25'0 0.0
2018-Apr-15 23:59N 36°08' W 005°25'0 0.0
2018-Apr-15 23:29N 36°08' W 005°25'0 0.0
2018-Apr-15 22:58N 36°08' W 005°25'0 0.0
2018-Apr-15 22:28N 36°08' W 005°25'0 0.0
2018-Apr-15 21:59N 36°08' W 005°25'0 0.0
2018-Apr-15 21:29N 36°08' W 005°25'0 0.0
2018-Apr-15 20:58N 36°08' W 005°25'0 0.0
2018-Apr-15 20:29N 36°08' W 005°25'0 0.0
2018-Apr-15 19:58N 36°08' W 005°25'0 0.0
2018-Apr-15 19:29N 36°08' W 005°25'0 0.0
2018-Apr-15 18:59N 36°08' W 005°25'0 0.0
2018-Apr-15 18:28N 36°08' W 005°25'0 0.0
2018-Apr-15 17:52N 36°08' W 005°25'0 0.0
2018-Apr-15 17:29N 36°08' W 005°25'0 0.0
2018-Apr-15 16:59N 36°08' W 005°25'0 0.0
2018-Apr-15 16:29N 36°08' W 005°25'0 0.0
2018-Apr-15 15:52N 36°08' W 005°25'0 0.0
2018-Apr-15 15:26N 36°08' W 005°25'0 0.0
2018-Apr-15 14:59N 36°08' W 005°25'0 0.4
2018-Apr-15 14:30N 36°08' W 005°25'2 4.2
2018-Apr-15 14:00N 36°06' W 005°23'4 7.2
2018-Apr-15 13:30N 36°03' W 005°21'0 0.7
2018-Apr-15 13:00N 36°03' W 005°21'0 0.4
2018-Apr-15 12:30N 36°03' W 005°21'1 1.2
2018-Apr-15 12:00N 36°03' W 005°22'0 0.8
2018-Apr-15 11:30N 36°03' W 005°22'1 2.4
2018-Apr-15 11:00N 36°04' W 005°21'0 0.3
2018-Apr-15 10:30N 36°04' W 005°21'0 0.2
2018-Apr-15 10:00N 36°04' W 005°21'2 3.4
2018-Apr-15 09:30N 36°02' W 005°20'510.9
2018-Apr-15 09:00N 35°58' W 005°24'221 6.7
2018-Apr-13 23:58N 37°34' W 009°33'511.1
2018-Apr-13 23:30N 37°39' W 009°32'611.1
2018-Apr-13 23:00N 37°44' W 009°31'511.1
2018-Apr-13 22:30N 37°50' W 009°30'611.2
2018-Apr-13 22:00N 37°55' W 009°29'611.3
2018-Apr-13 21:30N 38°01' W 009°29'611.2
2018-Apr-13 21:00N 38°07' W 009°28'611.2
2018-Apr-13 20:30N 38°12' W 009°27'611.3
2018-Apr-13 20:00N 38°18' W 009°27'611.2
2018-Apr-13 19:30N 38°24' W 009°26'611.2
2018-Apr-13 19:00N 38°29' W 009°26'611.3
2018-Apr-13 18:30N 38°35' W 009°25'510.5
2018-Apr-13 18:00N 38°40' W 009°24'3 6.2
2018-Apr-13 17:30N 38°37' W 009°23'612.4
2018-Apr-13 17:00N 38°41' W 009°17'5 7.1
2018-Apr-13 16:14N 38°42' W 009°10'0 0.0
2018-Apr-13 09:48N 38°42' W 009°10'0 0.0
2018-Apr-13 06:30N 38°42' W 009°10'0 0.0
2018-Apr-13 05:48N 38°42' W 009°10'0 0.0
2018-Apr-13 04:48N 38°42' W 009°10'0 0.0
2018-Apr-13 03:12N 38°42' W 009°10'0 0.0
2018-Apr-13 03:00N 38°42' W 009°10'0 0.0
2018-Apr-13 02:18N 38°42' W 009°10'0 0.0
2018-Apr-13 00:48N 38°42' W 009°10'0 0.0
2018-Apr-13 00:18N 38°42' W 009°10'0 0.0
2018-Apr-13 00:00N 38°42' W 009°10'0 0.0
2018-Apr-12 19:54N 38°42' W 009°10'0 0.0
2018-Apr-12 19:00N 38°42' W 009°10'0 0.0
2018-Apr-12 18:18N 38°42' W 009°10'0 0.0
2018-Apr-12 17:48N 38°42' W 009°10'0 0.0
2018-Apr-12 14:24N 38°42' W 009°10'0 0.0
2018-Apr-12 13:48N 38°42' W 009°10'0 0.0
2018-Apr-12 13:24N 38°42' W 009°10'0 0.0
2018-Apr-12 13:00N 38°42' W 009°10'0 0.0
2018-Apr-12 12:24N 38°42' W 009°10'0 0.0
2018-Apr-12 12:00N 38°42' W 009°10'0 0.0
2018-Apr-12 09:42N 38°42' W 009°10'0 0.0
2018-Apr-12 09:30N 38°42' W 009°10'0 0.0
2018-Apr-12 08:48N 38°42' W 009°10'0 0.0
2018-Apr-12 08:24N 38°42' W 009°10'0 0.0
2018-Apr-12 08:00N 38°42' W 009°10'0 0.0
2018-Apr-12 07:16N 38°42' W 009°10'0 0.0
2018-Apr-12 06:58N 38°42' W 009°10'0 0.0
2018-Apr-12 06:31N 38°42' W 009°10'0 0.0
2018-Apr-12 05:55N 38°42' W 009°10'0 0.0
2018-Apr-12 05:22N 38°42' W 009°10'0 0.0
2018-Apr-12 04:49N 38°42' W 009°10'0 0.0
2018-Apr-12 04:28N 38°42' W 009°10'0 0.0
2018-Apr-11 20:43N 38°42' W 009°10'0 0.0
2018-Apr-11 20:22N 38°42' W 009°10'0 0.0
2018-Apr-11 19:55N 38°42' W 009°10'  

Dump ship's entire track history